Time;durP1;ratioP1;P1;durP2;ratioP2;P2;SDS_P1;SDS_P2;PMS_P1;PMS_P2;Temp;Humidity;BMP_temperature;BMP_pressure;BME280_temperature;BME280_humidity;BME280_pressure;Samples;Min_cycle;Max_cycle;Signal;HPM_P1;HPM_P2
2021/07/01 00:00:30;;;;;;;2.58;2.38;;;25.50;50.40;;;29.13;34.19;100626.16;5134248;28;20047;-49
2021/07/01 00:02:56;;;;;;;2.47;2.28;;;25.50;50.40;;;29.16;34.08;100636.63;5134248;28;20047;-49
2021/07/01 00:05:22;;;;;;;3.10;2.80;;;25.50;50.50;;;29.15;34.58;100637.63;5134264;28;20057;-53
2021/07/01 00:07:49;;;;;;;2.50;2.30;;;25.50;50.50;;;29.13;34.30;100631.53;5134496;28;20047;-55
2021/07/01 00:10:24;;;;;;;2.47;2.28;;;25.50;50.50;;;29.12;34.26;100627.19;5134079;28;20126;-54
2021/07/01 00:12:50;;;;;;;2.70;2.50;;;25.50;50.50;;;29.14;34.11;100627.84;5134069;28;20054;-52
2021/07/01 00:15:21;;;;;;;2.63;2.42;;;25.50;50.50;;;29.12;34.33;100631.69;5134035;28;20043;-50
2021/07/01 00:17:47;;;;;;;3.17;2.85;;;25.50;50.50;;;29.13;34.19;100626.16;5134401;28;20057;-54
2021/07/01 00:20:14;;;;;;;2.55;2.35;;;25.50;50.50;;;29.09;34.54;100621.25;5133923;28;20126;-49
2021/07/01 00:22:40;;;;;;;2.60;2.40;;;25.50;50.50;;;29.09;34.43;100622.09;5115130;28;20167;-52
2021/07/01 00:25:09;;;;;;;3.42;2.58;;;25.40;50.50;;;29.10;34.46;100628.31;5133932;28;20043;-48
2021/07/01 00:27:34;;;;;;;3.42;2.60;;;25.40;50.50;;;29.09;34.28;100619.41;5133788;28;20050;-48
2021/07/01 00:30:04;;;;;;;3.03;2.72;;;25.50;50.60;;;29.08;34.54;100619.56;5133354;27;20039;-52
2021/07/01 00:32:30;;;;;;;2.63;2.42;;;25.40;50.50;;;29.04;34.51;100613.63;5133785;28;20047;-51
2021/07/01 00:34:57;;;;;;;2.40;2.20;;;25.40;50.50;;;29.05;34.54;100612.63;5115221;28;20066;-51
2021/07/01 00:37:23;;;;;;;2.72;2.50;;;25.40;50.60;;;29.07;34.53;100609.78;5133561;28;20126;-52
2021/07/01 00:39:49;;;;;;;2.55;2.35;;;25.40;50.60;;;29.07;34.56;100616.03;5133719;28;20043;-49
2021/07/01 00:42:15;;;;;;;2.47;2.28;;;25.40;50.60;;;29.03;34.76;100606.56;5133817;28;20051;-49
2021/07/01 00:44:41;;;;;;;2.60;2.40;;;25.40;50.60;;;29.04;34.48;100619.03;5114285;28;20043;-52
2021/07/01 00:47:07;;;;;;;2.45;2.25;;;25.40;50.60;;;29.01;34.48;100604.00;5133557;28;20412;-49
2021/07/01 00:49:34;;;;;;;2.65;2.45;;;25.40;50.60;;;29.03;34.64;100609.25;5114798;28;20047;-51
2021/07/01 00:52:02;;;;;;;2.50;2.30;;;25.40;50.70;;;29.03;34.69;100609.25;5097570;28;20108;-54
2021/07/01 00:54:28;;;;;;;2.65;2.45;;;25.40;50.70;;;29.01;34.83;100611.25;5133632;28;20059;-50
2021/07/01 00:56:54;;;;;;;2.75;2.55;;;25.40;50.70;;;28.97;34.62;100607.19;5113038;28;20125;-52
2021/07/01 00:59:21;;;;;;;2.72;2.53;;;25.30;50.60;;;28.96;34.54;100597.41;5098464;28;20043;-53
2021/07/01 01:01:47;;;;;;;2.38;2.17;;;25.40;50.70;;;29.01;34.39;100605.88;5114901;28;20525;-52
2021/07/01 01:04:12;;;;;;;2.20;2.10;;;25.40;50.70;;;28.99;34.40;100603.31;5133347;28;20047;-48
2021/07/01 01:06:39;;;;;;;2.70;2.50;;;25.40;50.70;;;28.95;34.38;100601.09;5133461;28;20134;-52
2021/07/01 01:09:09;;;;;;;2.83;2.58;;;25.30;50.70;;;28.97;34.69;100599.13;5133173;28;20515;-48
2021/07/01 01:11:35;;;;;;;2.58;2.38;;;25.40;50.70;;;28.98;34.75;100600.78;5114854;28;20103;-48
2021/07/01 01:14:04;;;;;;;2.97;2.63;;;25.40;50.70;;;28.95;34.64;100603.78;5133312;28;20099;-49
2021/07/01 01:16:32;;;;;;;2.40;2.20;;;25.30;51.30;;;28.94;34.80;100594.88;5133159;28;20508;-51
2021/07/01 01:18:59;;;;;;;2.65;2.45;;;25.30;50.70;;;28.94;34.45;100605.63;5113307;28;20051;-46
2021/07/01 01:21:28;;;;;;;2.78;2.50;;;25.30;50.70;;;28.92;34.40;100594.19;5115148;28;20039;-52
2021/07/01 01:24:00;;;;;;;2.60;2.40;;;25.40;50.80;;;28.94;34.88;100602.09;5097982;28;20048;-46
2021/07/01 01:26:26;;;;;;;2.35;2.15;;;25.30;50.70;;;28.95;34.57;100595.72;5114816;28;20047;-48
2021/07/01 01:28:53;;;;;;;3.53;2.67;;;25.30;50.70;;;28.94;34.52;100588.66;5114930;28;20506;-48
2021/07/01 01:31:21;;;;;;;2.58;2.38;;;25.30;50.80;;;28.93;34.61;100586.94;5133090;28;20042;-52
2021/07/01 01:33:51;;;;;;;2.53;2.33;;;25.30;50.80;;;28.91;34.46;100589.78;5132930;28;20094;-50
2021/07/01 01:36:17;;;;;;;2.28;2.17;;;25.30;50.80;;;28.91;34.60;100581.72;5114838;28;20047;-53
2021/07/01 01:38:46;;;;;;;2.60;2.40;;;25.20;50.70;;;28.90;34.77;100580.03;5114554;28;20184;-50
2021/07/01 01:41:30;;;;;;;2.58;2.38;;;25.30;50.80;;;28.91;34.94;100583.56;5133537;27;20043;-49
2021/07/01 01:43:57;;;;;;;2.42;2.22;;;25.20;50.80;;;28.90;34.93;100590.81;5114151;28;20048;-52
2021/07/01 01:46:35;;;;;;;2.60;2.40;;;25.20;50.80;;;28.86;34.75;100588.56;5117406;28;20137;-51
2021/07/01 01:49:02;;;;;;;2.83;2.63;;;25.20;50.80;;;28.89;34.54;100586.41;5136375;28;20078;-55
2021/07/01 01:51:28;;;;;;;2.40;2.20;;;25.30;50.90;;;28.86;34.69;100581.34;5137022;28;20039;-52
2021/07/01 01:54:00;;;;;;;2.40;2.22;;;25.20;50.80;;;28.88;34.79;100581.19;5114728;28;20059;-48
2021/07/01 01:56:36;;;;;;;2.65;2.45;;;25.20;50.90;;;28.81;34.73;100572.88;5136477;28;20046;-50
2021/07/01 01:59:07;;;;;;;2.42;2.22;;;25.20;50.90;;;28.85;34.87;100573.41;5116732;28;20362;-52
2021/07/01 02:01:52;;;;;;;2.50;2.30;;;25.20;50.90;;;28.83;34.80;100571.75;5136607;28;20450;-50
2021/07/01 02:04:30;;;;;;;2.70;2.50;;;25.20;50.90;;;28.82;34.89;100570.03;5117708;28;20535;-49
2021/07/01 02:06:56;;;;;;;2.60;2.40;;;25.20;50.90;;;28.83;34.77;100571.75;5117622;28;20104;-50
2021/07/01 02:09:28;;;;;;;2.65;2.45;;;25.20;50.90;;;28.84;34.59;100567.19;5118812;28;20079;-50
2021/07/01 02:11:54;;;;;;;2.40;2.20;;;25.20;50.90;;;28.81;34.62;100565.66;5135979;28;20106;-52
2021/07/01 02:14:22;;;;;;;2.42;2.22;;;25.20;50.90;;;28.83;34.76;100568.19;5136261;28;20043;-51
2021/07/01 02:17:05;;;;;;;2.35;2.13;;;25.20;50.90;;;28.83;34.79;100558.28;5102833;28;20043;-48
2021/07/01 02:19:31;;;;;;;2.70;2.50;;;25.20;50.90;;;28.80;35.06;100561.28;5113569;28;20407;-48
2021/07/01 02:21:57;;;;;;;2.78;2.47;;;25.20;50.90;;;28.79;34.67;100562.28;5136153;28;20055;-48
2021/07/01 02:24:24;;;;;;;2.58;2.38;;;25.20;51.00;;;28.80;34.94;100565.78;5133209;28;20048;-48
2021/07/01 02:26:50;;;;;;;2.45;2.25;;;25.20;50.90;;;28.81;34.94;100570.19;5115721;28;20052;-49
2021/07/01 02:29:17;;;;;;;2.67;2.47;;;25.20;51.00;;;28.78;34.67;100568.63;5135893;28;20048;-47
2021/07/01 02:32:18;;;;;;;;;;;25.20;51.00;;;28.90;34.57;100585.44;5108245;28;20043;-45
2021/07/01 02:34:45;;;;;;;2.30;2.10;;;25.20;51.00;;;28.86;34.64;100583.19;5116863;28;19919;-48
2021/07/01 02:37:29;;;;;;;2.25;2.05;;;25.20;51.00;;;28.82;34.56;100574.59;5135965;28;20147;-50
2021/07/01 02:39:58;;;;;;;3.08;2.78;;;25.20;51.00;;;28.77;34.66;100577.72;5135551;28;20054;-47
2021/07/01 02:42:26;;;;;;;3.00;2.30;;;25.20;51.00;;;28.78;34.77;100587.47;5115555;28;20138;-54
2021/07/01 02:44:53;;;;;;;2.65;2.45;;;25.20;51.00;;;28.74;35.01;100583.41;5095980;28;20044;-50
2021/07/01 02:47:39;;;;;;;2.30;2.10;;;25.10;50.90;;;28.77;34.74;100584.97;5093176;28;20043;-53
2021/07/01 02:50:07;;;;;;;2.20;2.10;;;25.10;51.00;;;28.76;35.02;100584.09;5135397;28;20043;-49
2021/07/01 02:52:36;;;;;;;2.55;2.35;;;25.20;51.00;;;28.74;34.92;100577.19;5116574;28;20047;-51
2021/07/01 02:55:03;;;;;;;2.45;2.10;;;25.20;51.10;;;28.73;34.99;100575.50;5117474;28;20054;-52
2021/07/01 02:57:30;;;;;;;2.70;2.50;;;25.20;51.10;;;28.75;34.97;100576.19;5116774;28;20054;-50
2021/07/01 02:59:59;;;;;;;2.40;2.20;;;25.10;51.00;;;28.74;34.93;100580.72;5135243;28;20054;-48
2021/07/01 03:02:38;;;;;;;2.20;2.10;;;25.20;51.10;;;28.70;34.70;100565.03;5135621;28;20051;-49
2021/07/01 03:05:26;;;;;;;2.45;2.25;;;25.10;51.00;;;28.70;34.95;100573.97;5134806;28;20043;-49
2021/07/01 03:07:52;;;;;;;2.55;2.35;;;25.10;51.10;;;28.74;34.76;100571.81;5135006;28;20046;-51
2021/07/01 03:10:20;;;;;;;2.00;1.90;;;25.10;51.10;;;28.70;34.87;100570.41;5135444;28;20404;-53
2021/07/01 03:12:59;;;;;;;2.60;2.40;;;25.10;51.00;;;28.73;34.77;100572.81;5135166;28;20050;-49
2021/07/01 03:15:26;;;;;;;2.60;2.40;;;25.10;51.10;;;28.72;35.04;100571.97;5085098;28;20050;-49
2021/07/01 03:17:52;;;;;;;2.70;2.50;;;25.10;51.00;;;28.65;34.73;100557.41;5135254;28;20051;-49
2021/07/01 03:20:23;;;;;;;2.70;2.35;;;25.10;51.00;;;28.69;34.90;100569.56;5116493;28;20059;-51
2021/07/01 03:23:15;;;;;;;2.58;2.38;;;25.10;51.10;;;28.74;34.87;100566.44;5134859;28;20055;-52
2021/07/01 03:25:41;;;;;;;2.50;2.30;;;25.10;51.10;;;28.70;35.10;100565.03;5099385;28;20050;-46
2021/07/01 03:28:08;;;;;;;2.90;2.70;;;25.10;51.10;;;28.71;35.10;100566.75;5116581;28;20051;-52
2021/07/01 03:30:34;;;;;;;2.55;2.35;;;25.10;51.10;;;28.70;35.13;100568.59;5115242;28;20047;-50
2021/07/01 03:33:01;;;;;;;2.72;2.53;;;25.10;51.10;;;28.70;34.81;100573.09;5099497;28;20043;-51
2021/07/01 03:35:27;;;;;;;2.50;2.30;;;25.00;51.10;;;28.67;34.86;100568.91;5099806;28;20049;-49
2021/07/01 03:38:11;;;;;;;2.38;2.13;;;25.10;51.10;;;28.66;35.00;100566.34;5134532;28;20049;-48
2021/07/01 03:40:53;;;;;;;2.25;2.05;;;25.10;51.10;;;28.66;34.96;100567.19;5116142;28;20138;-52
2021/07/01 03:43:19;;;;;;;2.50;2.30;;;25.00;51.10;;;28.66;34.76;100571.72;5115238;28;20043;-52
2021/07/01 03:45:49;;;;;;;2.75;2.55;;;25.00;51.10;;;28.67;35.06;100562.66;5116201;28;20057;-51
2021/07/01 03:48:16;;;;;;;2.40;2.20;;;25.00;51.10;;;28.68;35.00;100572.41;5134321;28;20047;-55
2021/07/01 03:51:04;;;;;;;2.53;2.33;;;25.10;51.20;;;28.66;34.76;100563.66;5134702;28;20047;-51
2021/07/01 03:53:39;;;;;;;2.60;2.40;;;25.00;51.20;;;28.67;35.21;100560.81;5116610;28;20082;-49
2021/07/01 03:56:05;;;;;;;2.40;2.20;;;25.00;51.10;;;28.65;35.12;100565.47;5115885;28;20079;-52
2021/07/01 03:58:31;;;;;;;2.42;2.22;;;25.00;51.20;;;28.64;35.13;100563.81;5134303;28;20075;-51
2021/07/01 04:01:17;;;;;;;2.50;2.30;;;25.00;51.20;;;28.66;35.12;100561.81;5134163;28;20125;-51
2021/07/01 04:03:43;;;;;;;2.38;2.17;;;25.00;51.20;;;28.63;34.93;100562.09;5115957;28;20050;-54
2021/07/01 04:06:16;;;;;;;2.50;2.30;;;25.00;51.20;;;28.64;35.15;100561.97;5115407;28;20137;-54
2021/07/01 04:08:42;;;;;;;2.63;2.42;;;25.00;51.20;;;28.64;34.93;100563.81;5116078;28;20057;-52
2021/07/01 04:11:10;;;;;;;2.42;2.22;;;25.00;51.30;;;28.62;34.94;100563.97;5115772;28;20055;-51
2021/07/01 04:13:36;;;;;;;2.50;2.30;;;25.00;51.20;;;28.64;35.20;100569.19;5114166;28;20092;-51
2021/07/01 04:16:21;;;;;;;2.70;2.50;;;25.00;51.20;;;28.61;35.27;100564.13;5134440;28;20046;-51
2021/07/01 04:19:05;;;;;;;2.50;2.30;;;25.00;51.20;;;28.61;35.33;100567.63;5134107;28;20465;-50
2021/07/01 04:22:01;;;;;;;2.30;2.10;;;25.00;51.30;;;28.59;34.84;100555.34;5115892;28;20047;-53
2021/07/01 04:24:45;;;;;;;2.50;2.30;;;25.00;51.20;;;28.59;35.10;100558.06;5133795;28;20120;-51
2021/07/01 04:27:29;;;;;;;2.22;2.10;;;25.00;51.20;;;28.60;35.06;100557.91;5115603;28;20051;-53
2021/07/01 04:29:55;;;;;;;2.75;2.28;;;25.00;51.20;;;28.60;34.87;100563.28;5133831;28;20069;-51
2021/07/01 04:32:24;;;;;;;2.20;2.10;;;25.00;51.30;;;28.60;35.27;100560.59;5112079;28;20044;-55
2021/07/01 04:34:53;;;;;;;2.25;2.08;;;25.00;51.30;;;28.60;34.93;100571.34;5096743;28;20135;-52
2021/07/01 04:37:19;;;;;;;2.30;2.10;;;25.00;51.30;;;28.60;34.90;100570.47;5115212;28;20142;-51
2021/07/01 04:39:50;;;;;;;2.38;2.17;;;25.00;51.30;;;28.60;34.92;100563.28;5132682;28;20434;-54
2021/07/01 04:42:20;;;;;;;2.70;2.50;;;25.00;51.30;;;28.61;34.93;100556.03;5114421;28;20092;-49
2021/07/01 04:44:46;;;;;;;2.50;2.30;;;25.00;51.30;;;28.59;34.86;100563.44;5133500;28;20047;-47
2021/07/01 04:47:14;;;;;;;2.30;2.10;;;25.00;51.30;;;28.59;35.21;100564.25;5114235;28;20055;-48
2021/07/01 04:49:44;;;;;;;2.50;2.30;;;25.00;51.80;;;28.60;34.84;100568.66;5112423;28;20155;-53
2021/07/01 04:52:29;;;;;;;2.22;2.03;;;24.90;51.30;;;28.59;35.16;100575.03;5133670;28;20061;-48
2021/07/01 04:55:14;;;;;;;2.10;1.90;;;25.00;51.30;;;28.55;35.15;100576.31;5133816;28;20058;-47
2021/07/01 04:58:03;;;;;;;2.58;2.38;;;25.00;51.30;;;28.57;35.17;100576.19;5083125;28;20386;-50
2021/07/01 05:00:29;;;;;;;2.45;2.25;;;25.00;51.40;;;28.57;35.27;100577.03;5115104;28;20097;-49
2021/07/01 05:03:15;;;;;;;2.38;2.17;;;25.00;51.40;;;28.53;35.19;100567.53;5133569;28;20401;-49
2021/07/01 05:05:41;;;;;;;2.22;2.08;;;24.90;51.30;;;28.55;35.00;100570.06;5115174;28;20050;-49
2021/07/01 05:08:07;;;;;;;2.40;2.20;;;24.90;51.30;;;28.52;35.11;100568.53;5133570;28;20054;-47
2021/07/01 05:10:35;;;;;;;2.40;2.20;;;24.90;51.30;;;28.55;35.27;100578.13;5112961;28;20052;-52
2021/07/01 05:13:10;;;;;;;2.58;2.38;;;24.90;51.80;;;28.53;35.14;100566.69;5133571;28;20058;-50
2021/07/01 05:15:36;;;;;;;2.53;2.33;;;24.90;51.30;;;28.55;35.08;100580.81;5115089;27;20047;-49
2021/07/01 05:18:05;;;;;;;2.22;2.03;;;24.90;51.30;;;28.55;35.20;100578.13;5118195;28;20039;-47
2021/07/01 05:20:32;;;;;;;3.00;2.20;;;24.90;51.30;;;28.53;35.24;100574.75;5115851;28;20418;-51
2021/07/01 05:23:16;;;;;;;2.38;2.10;;;24.90;51.30;;;28.54;35.38;100573.78;5137320;28;20054;-52
2021/07/01 05:26:05;;;;;;;2.10;2.00;;;24.90;51.30;;;28.55;35.15;100580.81;5088645;28;20047;-53
2021/07/01 05:28:50;;;;;;;2.58;2.38;;;24.90;51.40;;;28.53;35.14;100577.44;5134582;28;20195;-51
2021/07/01 05:31:54;;;;;;;2.42;2.22;;;24.90;51.40;;;28.53;34.94;100586.34;5135856;28;20051;-48
2021/07/01 05:34:58;;;;;;;2.20;2.00;;;24.90;51.30;;;28.50;34.97;100575.91;5136089;28;20043;-53
2021/07/01 05:37:26;;;;;;;2.22;2.03;;;24.90;51.30;;;28.50;35.16;100580.44;5117524;28;20051;-51
2021/07/01 05:40:00;;;;;;;2.50;2.30;;;24.90;51.30;;;28.51;35.10;100582.13;5118355;28;20051;-49
2021/07/01 05:42:26;;;;;;;2.13;1.98;;;24.90;51.40;;;28.46;35.24;100571.81;5118039;28;20083;-50
2021/07/01 05:44:53;;;;;;;2.20;2.00;;;24.90;51.40;;;28.47;35.15;100578.91;5116536;28;20054;-50
2021/07/01 05:47:19;;;;;;;2.28;2.10;;;24.90;51.40;;;28.49;35.25;100584.13;5118199;28;20082;-46
2021/07/01 05:49:45;;;;;;;2.13;1.98;;;24.90;51.50;;;28.49;35.14;100586.81;5136255;28;20500;-49
2021/07/01 05:52:12;;;;;;;2.47;2.28;;;24.80;51.50;;;28.46;35.27;100585.28;5136235;28;20124;-48
2021/07/01 05:54:41;;;;;;;2.22;2.03;;;24.90;51.50;;;28.48;35.21;100587.81;5136307;28;20051;-48
2021/07/01 05:57:06;;;;;;;2.45;2.17;;;24.90;51.50;;;28.48;35.12;100590.50;5136367;28;20103;-48
2021/07/01 05:59:32;;;;;;;3.05;2.15;;;24.80;51.40;;;28.48;35.36;100590.50;5136495;28;20138;-47
2021/07/01 06:01:59;;;;;;;2.28;2.08;;;24.90;51.50;;;28.44;35.42;100589.97;5136092;28;20051;-50
2021/07/01 06:04:24;;;;;;;2.35;2.13;;;24.90;51.50;;;28.47;35.18;100600.44;5135848;28;20200;-47
2021/07/01 06:07:10;;;;;;;2.35;2.15;;;24.90;51.50;;;28.47;35.32;100595.03;5136407;28;20575;-49
2021/07/01 06:09:38;;;;;;;2.40;2.20;;;24.80;51.40;;;28.49;34.92;100600.28;5100563;28;20046;-46
2021/07/01 06:12:04;;;;;;;2.42;2.17;;;24.90;51.40;;;28.49;35.24;100594.91;5117340;28;20396;-50
2021/07/01 06:14:31;;;;;;;2.40;2.20;;;24.90;51.50;;;28.48;35.10;100588.66;5135864;28;20040;-46
2021/07/01 06:17:03;;;;;;;2.08;1.90;;;24.90;51.50;;;28.49;35.27;100592.22;5115360;28;20112;-50
2021/07/01 06:19:30;;;;;;;2.33;2.13;;;24.90;51.50;;;28.49;35.10;100587.66;5136408;28;20087;-50
2021/07/01 06:21:56;;;;;;;2.33;2.13;;;24.90;51.50;;;28.49;35.04;100584.97;5135909;28;20092;-45
2021/07/01 06:24:22;;;;;;;2.20;2.00;;;24.90;51.40;;;28.48;35.24;100583.28;5135809;28;20067;-48
2021/07/01 06:26:49;;;;;;;3.22;2.30;;;24.80;51.30;;;28.49;35.35;100584.13;5135795;28;20130;-53
2021/07/01 06:29:16;;;;;;;2.35;2.10;;;24.90;51.40;;;28.52;35.06;100594.56;5134956;27;20066;-53
2021/07/01 06:31:42;;;;;;;3.25;2.45;;;24.90;51.40;;;28.50;35.39;100586.69;5135762;28;20083;-51
2021/07/01 06:34:08;;;;;;;1.75;1.65;;;24.90;51.40;;;28.50;35.01;100596.56;5136084;28;20085;-54
2021/07/01 06:36:38;;;;;;;2.60;2.40;;;24.90;51.40;;;28.51;35.20;100599.09;5135453;28;20548;-52
2021/07/01 06:39:25;;;;;;;2.58;1.70;;;24.90;51.40;;;28.50;35.26;100588.50;5120505;28;20108;-50
2021/07/01 06:42:10;;;;;;;3.72;2.40;;;24.90;51.40;;;28.52;35.31;100591.88;5120227;28;20054;-48
2021/07/01 06:44:56;;;;;;;1.92;1.83;;;24.90;51.30;;;28.52;35.28;100589.19;5120070;28;20058;-53
2021/07/01 06:47:49;;;;;;;2.70;2.50;;;24.90;51.40;;;28.53;35.30;100593.56;5119924;28;20077;-53
2021/07/01 06:50:58;;;;;;;3.22;2.58;;;24.90;51.30;;;28.52;35.10;100595.44;5135311;28;20133;-50
2021/07/01 06:53:47;;;;;;;3.83;2.10;;;24.90;51.30;;;28.53;35.14;100597.09;5096641;28;20047;-54
2021/07/01 06:56:38;;;;;;;1.90;1.80;;;24.90;51.30;;;28.57;35.27;100609.31;5119481;28;20043;-51
2021/07/01 06:59:06;;;;;;;2.70;2.10;;;24.90;51.30;;;28.55;35.22;100611.28;5135690;28;20047;-46
2021/07/01 07:01:33;;;;;;;4.32;2.30;;;24.90;51.30;;;28.55;35.13;100611.28;5135905;28;20039;-49
2021/07/01 07:04:00;;;;;;;2.58;2.38;;;24.90;51.30;;;28.52;35.05;100602.63;5135124;28;20051;-54
2021/07/01 07:06:26;;;;;;;2.38;2.08;;;24.90;51.40;;;28.54;35.30;100609.56;5135613;28;20051;-45
2021/07/01 07:08:52;;;;;;;4.15;2.35;;;24.90;51.40;;;28.53;34.99;100612.41;5135112;28;20043;-52
2021/07/01 07:11:18;;;;;;;2.92;2.40;;;24.90;51.40;;;28.53;35.25;100610.56;5117121;28;20138;-47
2021/07/01 07:13:44;;;;;;;2.45;1.98;;;24.90;51.30;;;28.49;35.22;100609.19;5135122;28;20522;-51
2021/07/01 07:16:10;;;;;;;2.20;2.00;;;24.90;51.40;;;28.50;34.87;100607.31;5134989;28;20066;-51
2021/07/01 07:18:38;;;;;;;3.10;2.15;;;24.90;51.40;;;28.50;35.34;100613.56;5134945;28;20043;-49
2021/07/01 07:21:19;;;;;;;2.67;2.42;;;24.90;51.40;;;28.49;34.97;100619.94;5116652;28;20043;-53
2021/07/01 07:23:53;;;;;;;2.95;2.00;;;24.90;51.40;;;28.50;35.17;100613.56;5134867;28;20062;-51
2021/07/01 07:26:25;;;;;;;3.17;2.00;;;24.90;51.40;;;28.47;35.03;100619.25;5134900;28;20047;-50
2021/07/01 07:28:56;;;;;;;2.65;1.92;;;24.90;51.40;;;28.50;35.15;100618.94;5134888;28;20047;-52
2021/07/01 07:31:31;;;;;;;;;;;24.90;51.40;;;28.63;34.81;100614.09;5135898;28;20461;-50
2021/07/01 07:34:04;;;;;;;2.85;2.30;;;24.90;51.40;;;28.57;34.97;100613.84;5135035;28;19922;-53
2021/07/01 07:36:30;;;;;;;3.13;2.25;;;24.90;51.30;;;28.56;34.82;100623.75;5135121;28;20123;-52
2021/07/01 07:38:57;;;;;;;2.45;2.05;;;24.90;51.30;;;28.54;35.12;100625.72;5134362;27;20046;-47
2021/07/01 07:41:24;;;;;;;2.60;2.10;;;24.90;51.90;;;28.54;34.83;100625.72;5134446;28;20115;-47
2021/07/01 07:43:51;;;;;;;4.38;1.90;;;24.90;51.30;;;28.54;35.25;100620.31;5134842;28;20047;-54
2021/07/01 07:46:19;;;;;;;3.42;2.20;;;24.90;51.30;;;28.56;35.27;100630.97;5134746;28;20476;-53
2021/07/01 07:48:46;;;;;;;2.97;1.95;;;24.90;51.30;;;28.56;35.18;100628.28;5116578;28;20043;-50
2021/07/01 07:51:15;;;;;;;2.97;2.20;;;24.90;51.30;;;28.58;35.15;100628.97;5134326;28;20070;-51
2021/07/01 07:53:46;;;;;;;2.58;1.92;;;24.90;51.20;;;28.56;35.08;100620.22;5134429;28;20047;-52
2021/07/01 07:56:12;;;;;;;2.35;2.15;;;25.00;51.30;;;28.61;34.83;100624.13;5134369;28;20056;-53
2021/07/01 07:58:49;;;;;;;3.40;2.20;;;25.00;51.20;;;28.60;34.97;100625.16;5134337;28;20092;-48
2021/07/01 08:01:15;;;;;;;2.67;1.98;;;25.00;51.20;;;28.61;34.77;100618.75;5134188;28;20111;-47
2021/07/01 08:03:42;;;;;;;2.47;2.08;;;25.00;51.20;;;28.60;34.86;100621.59;5134482;28;20400;-47
2021/07/01 08:06:10;;;;;;;3.88;2.20;;;25.00;51.10;;;28.65;34.96;100621.97;5133993;28;20051;-48
2021/07/01 08:08:41;;;;;;;2.80;1.90;;;25.00;51.10;;;28.66;35.08;100622.84;5115692;28;20138;-51
2021/07/01 08:11:13;;;;;;;3.42;1.85;;;25.00;51.10;;;28.71;34.78;100625.94;5192920;27;20224;-50
2021/07/01 08:13:39;;;;;;;4.50;2.58;;;25.00;51.00;;;28.72;34.56;100628.47;5171746;27;20545;-47
2021/07/01 08:16:07;;;;;;;2.40;1.90;;;25.00;51.00;;;28.73;34.61;100626.63;5172368;27;20046;-46
2021/07/01 08:18:39;;;;;;;3.95;2.13;;;25.00;51.00;;;28.75;34.86;100630.00;5171599;27;20035;-52
2021/07/01 08:21:08;;;;;;;4.65;2.67;;;25.00;50.90;;;28.76;34.85;100635.22;5172255;27;20110;-48
2021/07/01 08:23:35;;;;;;;4.35;2.17;;;25.10;50.90;;;28.74;34.52;100628.31;5171622;27;20069;-47
2021/07/01 08:26:03;;;;;;;4.28;2.20;;;25.00;50.90;;;28.76;34.65;100640.59;5172053;27;20054;-48
2021/07/01 08:28:30;;;;;;;2.90;2.00;;;25.10;51.00;;;28.76;34.92;100637.06;5171522;27;20053;-46
2021/07/01 08:31:11;;;;;;;3.33;2.13;;;25.10;50.90;;;28.74;34.93;100634.53;5171418;27;20046;-48
2021/07/01 08:33:40;;;;;;;3.63;2.10;;;25.10;50.90;;;28.79;34.84;100639.47;5171559;27;20055;-50
2021/07/01 08:36:19;;;;;;;2.10;1.90;;;25.10;50.90;;;28.76;34.62;100637.91;5171608;27;20078;-50
2021/07/01 08:38:45;;;;;;;3.72;2.30;;;25.10;50.90;;;28.77;34.50;100633.41;5167206;27;20512;-52
2021/07/01 08:41:18;;;;;;;4.32;2.28;;;25.10;50.90;;;28.75;34.50;100632.69;5152793;27;20042;-49
2021/07/01 08:44:03;;;;;;;3.75;2.60;;;25.10;51.00;;;28.74;34.63;100637.22;5153085;27;20402;-47
2021/07/01 08:46:44;;;;;;;3.50;2.25;;;25.10;50.90;;;28.73;34.52;100646.28;5171167;27;20042;-46
2021/07/01 08:49:10;;;;;;;;;;;25.10;51.00;;;28.89;34.27;100642.09;5152883;27;20134;-48
2021/07/01 08:51:43;;;;;;;3.03;2.28;;;25.10;50.90;;;28.79;34.72;100645.69;5171179;27;19923;-46
2021/07/01 08:54:23;;;;;;;4.30;2.13;;;25.00;50.90;;;28.76;34.61;100645.16;5171121;27;20046;-47
2021/07/01 08:56:51;;;;;;;4.07;2.30;;;25.00;50.90;;;28.78;34.57;100649.34;5171166;27;20406;-48
2021/07/01 08:59:20;;;;;;;6.10;2.33;;;25.10;50.90;;;28.77;34.67;100647.69;5171022;27;20054;-50
2021/07/01 09:01:57;;;;;;;3.95;2.38;;;25.10;50.90;;;28.75;34.80;100640.75;5170976;27;20046;-46
2021/07/01 09:04:31;;;;;;;5.15;2.40;;;25.10;50.90;;;28.76;34.87;100645.97;5171320;27;20518;-51
2021/07/01 09:07:00;;;;;;;3.75;2.40;;;25.10;50.90;;;28.78;34.77;100646.66;5170757;27;20046;-48
2021/07/01 09:09:37;;;;;;;4.25;2.63;;;25.10;50.90;;;28.76;34.48;100635.22;5171048;27;20057;-49
2021/07/01 09:12:08;;;;;;;3.10;2.35;;;25.10;50.90;;;28.78;34.66;100648.53;5171083;27;20112;-51
2021/07/01 09:14:36;;;;;;;4.13;2.55;;;25.10;50.90;;;28.77;34.76;100647.69;5151982;27;20050;-51
2021/07/01 09:17:08;;;;;;;2.97;2.30;;;25.10;50.90;;;28.76;34.68;100654.06;5151360;27;20054;-46
2021/07/01 09:19:36;;;;;;;4.32;2.20;;;25.10;50.90;;;28.78;34.49;100648.53;5170563;27;20137;-48
2021/07/01 09:22:02;;;;;;;5.50;2.47;;;25.10;50.80;;;28.78;34.64;100649.34;5160174;27;20051;-45
2021/07/01 09:24:36;;;;;;;3.20;2.20;;;25.10;50.80;;;28.78;34.66;100653.91;5156660;27;20402;-51
2021/07/01 09:27:12;;;;;;;6.57;2.42;;;25.10;50.80;;;28.79;34.84;100658.31;5156828;27;20130;-47
2021/07/01 09:29:42;;;;;;;2.75;2.00;;;25.10;50.80;;;28.76;34.77;100645.16;5156380;27;20402;-49
2021/07/01 09:32:11;;;;;;;3.05;1.98;;;25.10;50.80;;;28.77;34.78;100657.63;5156342;27;20998;-48
2021/07/01 09:34:39;;;;;;;2.40;1.98;;;25.10;50.80;;;28.77;34.49;100657.63;5156694;27;20505;-47
2021/07/01 09:37:06;;;;;;;3.35;2.22;;;25.10;50.90;;;28.77;34.44;100655.75;5156629;27;20129;-51
2021/07/01 09:39:32;;;;;;;4.65;2.45;;;25.10;50.90;;;28.78;34.76;100649.34;5156303;27;20047;-49
2021/07/01 09:42:01;;;;;;;4.20;2.20;;;25.10;50.80;;;28.79;34.48;100661.00;5156423;27;20047;-49
2021/07/01 09:44:31;;;;;;;2.60;2.13;;;25.10;50.80;;;28.78;34.76;100660.13;5156699;27;20485;-49
2021/07/01 09:47:00;;;;;;;5.88;2.20;;;25.10;50.80;;;28.82;34.75;100658.84;5156418;27;20105;-50
2021/07/01 09:49:36;;;;;;;4.65;2.13;;;25.10;50.70;;;28.82;34.73;100666.06;5156529;27;20042;-49
2021/07/01 09:52:14;;;;;;;2.65;2.30;;;25.10;50.70;;;28.85;34.51;100663.06;5156091;27;20401;-49
2021/07/01 09:54:47;;;;;;;3.60;2.20;;;25.20;50.70;;;28.89;34.60;100664.47;5156012;27;20375;-50
2021/07/01 09:57:22;;;;;;;4.68;2.10;;;25.20;50.60;;;28.90;34.27;100660.78;5136576;27;20043;-50
2021/07/01 09:59:57;;;;;;;3.38;2.17;;;25.20;50.50;;;28.92;34.52;100661.47;5155889;27;20371;-52
2021/07/01 10:02:24;;;;;;;5.22;2.10;;;25.20;50.50;;;28.94;34.56;100659.47;5138191;27;20043;-50
2021/07/01 10:04:50;;;;;;;3.40;2.28;;;25.20;50.50;;;28.97;34.34;100671.78;5156587;27;20043;-52
2021/07/01 10:07:19;;;;;;;2.55;2.28;;;25.20;50.50;;;28.93;34.25;100668.53;5155590;27;20180;-53
2021/07/01 10:09:49;;;;;;;3.47;2.05;;;25.20;50.50;;;28.95;34.52;100665.69;5155771;27;20078;-48
2021/07/01 10:12:29;;;;;;;3.97;2.42;;;25.20;50.50;;;28.95;34.29;100671.94;5155816;27;20042;-47
2021/07/01 10:14:58;;;;;;;4.15;2.50;;;25.20;50.50;;;28.97;34.35;100667.25;5156005;27;20193;-46
2021/07/01 10:17:26;;;;;;;4.22;2.10;;;25.30;50.50;;;29.00;34.13;100668.75;5118238;27;20518;-51
2021/07/01 10:20:10;;;;;;;5.70;2.63;;;25.30;50.50;;;28.99;34.48;100667.09;5155888;27;20541;-50
2021/07/01 10:22:41;;;;;;;3.83;1.92;;;25.30;50.40;;;29.03;34.18;100676.53;5155839;27;20043;-48
2021/07/01 10:25:09;;;;;;;3.90;2.00;;;25.30;50.40;;;29.07;34.46;100674.38;5137313;27;20039;-50
2021/07/01 10:27:42;;;;;;;2.65;2.00;;;25.30;50.30;;;29.05;34.35;100671.00;5155491;27;20088;-46
2021/07/01 10:30:25;;;;;;;5.50;2.00;;;25.40;50.30;;;29.06;34.07;100667.31;5155590;27;20509;-50